sensor_id;sensor_type;location;lat;lon;timestamp;temperature;humidity
21778;DHT22;11050;52.222;20.916;2024-01-15T00:02:07;1.30;99.90
21778;DHT22;11050;52.222;20.916;2024-01-15T00:04:37;1.40;99.90
21778;DHT22;11050;52.222;20.916;2024-01-15T00:07:04;1.40;99.90
21778;DHT22;11050;52.222;20.916;2024-01-15T00:09:30;1.40;99.90
21778;DHT22;11050;52.222;20.916;2024-01-15T00:11:56;1.40;99.90
21778;DHT22;11050;52.222;20.916;2024-01-15T00:14:22;1.40;99.90
21778;DHT22;11050;52.222;20.916;2024-01-15T00:16:48;1.40;99.90
21778;DHT22;11050;52.222;20.916;2024-01-15T00:19:17;1.40;99.90
21778;DHT22;11050;52.222;20.916;2024-01-15T00:21:44;1.30;99.90
21778;DHT22;11050;52.222;20.916;2024-01-15T00:24:10;1.30;99.90
21778;DHT22;11050;52.222;20.916;2024-01-15T00:26:36;1.30;99.90
21778;DHT22;11050;52.222;20.916;2024-01-15T00:29:02;1.30;99.90
21778;DHT22;11050;52.222;20.916;2024-01-15T00:31:29;1.30;99.90
21778;DHT22;11050;52.222;20.916;2024-01-15T00:33:56;1.30;99.90
21778;DHT22;11050;52.222;20.916;2024-01-15T00:36:23;1.30;99.90
21778;DHT22;11050;52.222;20.916;2024-01-15T00:38:48;1.40;99.90
21778;DHT22;11050;52.222;20.916;2024-01-15T00:41:15;1.30;99.90
21778;DHT22;11050;52.222;20.916;2024-01-15T00:43:41;1.40;99.90
21778;DHT22;11050;52.222;20.916;2024-01-15T00:46:06;1.30;99.90
21778;DHT22;11050;52.222;20.916;2024-01-15T00:48:33;1.40;99.90
21778;DHT22;11050;52.222;20.916;2024-01-15T00:50:59;1.30;99.90
21778;DHT22;11050;52.222;20.916;2024-01-15T00:53:25;1.30;99.90
21778;DHT22;11050;52.222;20.916;2024-01-15T00:55:51;1.30;99.90
21778;DHT22;11050;52.222;20.916;2024-01-15T00:58:17;1.30;99.90
21778;DHT22;11050;52.222;20.916;2024-01-15T01:00:42;1.30;99.90
21778;DHT22;11050;52.222;20.916;2024-01-15T01:03:09;1.20;99.90
21778;DHT22;11050;52.222;20.916;2024-01-15T01:05:35;1.20;99.90
21778;DHT22;11050;52.222;20.916;2024-01-15T01:08:00;1.20;99.90
21778;DHT22;11050;52.222;20.916;2024-01-15T01:10:27;1.20;99.90
21778;DHT22;11050;52.222;20.916;2024-01-15T01:12:53;1.20;99.90
21778;DHT22;11050;52.222;20.916;2024-01-15T01:15:19;1.10;99.90
21778;DHT22;11050;52.222;20.916;2024-01-15T01:17:45;1.10;99.90
21778;DHT22;11050;52.222;20.916;2024-01-15T01:20:12;1.10;99.90
21778;DHT22;11050;52.222;20.916;2024-01-15T01:22:37;1.10;99.90
21778;DHT22;11050;52.222;20.916;2024-01-15T01:25:05;1.10;99.90
21778;DHT22;11050;52.222;20.916;2024-01-15T01:27:31;1.10;99.90
21778;DHT22;11050;52.222;20.916;2024-01-15T01:29:57;1.10;99.90
21778;DHT22;11050;52.222;20.916;2024-01-15T01:32:23;1.10;99.90
21778;DHT22;11050;52.222;20.916;2024-01-15T01:34:48;1.10;99.90
21778;DHT22;11050;52.222;20.916;2024-01-15T01:37:14;1.20;99.90
21778;DHT22;11050;52.222;20.916;2024-01-15T01:39:43;1.10;99.90
21778;DHT22;11050;52.222;20.916;2024-01-15T01:42:10;1.10;99.90
21778;DHT22;11050;52.222;20.916;2024-01-15T01:44:36;1.10;99.90
21778;DHT22;11050;52.222;20.916;2024-01-15T01:47:04;1.20;99.90
21778;DHT22;11050;52.222;20.916;2024-01-15T01:49:31;1.20;99.90
21778;DHT22;11050;52.222;20.916;2024-01-15T01:51:59;1.20;99.90
21778;DHT22;11050;52.222;20.916;2024-01-15T01:54:28;1.20;99.90
21778;DHT22;11050;52.222;20.916;2024-01-15T01:56:56;1.20;99.90
21778;DHT22;11050;52.222;20.916;2024-01-15T01:59:23;1.20;99.90
21778;DHT22;11050;52.222;20.916;2024-01-15T02:01:54;1.20;99.90
21778;DHT22;11050;52.222;20.916;2024-01-15T02:04:23;1.20;99.90
21778;DHT22;11050;52.222;20.916;2024-01-15T02:06:50;1.20;99.90
21778;DHT22;11050;52.222;20.916;2024-01-15T02:09:17;1.20;99.90
21778;DHT22;11050;52.222;20.916;2024-01-15T02:11:46;1.20;99.90
21778;DHT22;11050;52.222;20.916;2024-01-15T02:14:13;1.20;99.90
21778;DHT22;11050;52.222;20.916;2024-01-15T02:16:39;1.20;99.90
21778;DHT22;11050;52.222;20.916;2024-01-15T02:19:05;1.20;99.90
21778;DHT22;11050;52.222;20.916;2024-01-15T02:21:32;1.20;99.90
21778;DHT22;11050;52.222;20.916;2024-01-15T02:23:58;1.20;99.90
21778;DHT22;11050;52.222;20.916;2024-01-15T02:26:24;1.20;99.90
21778;DHT22;11050;52.222;20.916;2024-01-15T02:28:51;1.20;99.90
21778;DHT22;11050;52.222;20.916;2024-01-15T02:31:17;1.30;99.90
21778;DHT22;11050;52.222;20.916;2024-01-15T02:33:43;1.30;99.90
21778;DHT22;11050;52.222;20.916;2024-01-15T02:36:11;1.30;99.90
21778;DHT22;11050;52.222;20.916;2024-01-15T02:38:37;1.30;99.90
21778;DHT22;11050;52.222;20.916;2024-01-15T02:41:03;1.20;99.90
21778;DHT22;11050;52.222;20.916;2024-01-15T02:43:29;1.20;99.90
21778;DHT22;11050;52.222;20.916;2024-01-15T02:45:55;1.20;99.90
21778;DHT22;11050;52.222;20.916;2024-01-15T02:48:21;1.20;99.90
21778;DHT22;11050;52.222;20.916;2024-01-15T02:50:46;1.20;99.90
21778;DHT22;11050;52.222;20.916;2024-01-15T02:53:12;1.20;99.90
21778;DHT22;11050;52.222;20.916;2024-01-15T02:55:38;1.30;99.90
21778;DHT22;11050;52.222;20.916;2024-01-15T02:58:04;1.20;99.90
21778;DHT22;11050;52.222;20.916;2024-01-15T03:00:30;1.20;99.90
21778;DHT22;11050;52.222;20.916;2024-01-15T03:02:56;1.20;99.90
21778;DHT22;11050;52.222;20.916;2024-01-15T03:05:22;1.20;99.90
21778;DHT22;11050;52.222;20.916;2024-01-15T03:07:48;1.20;99.90
21778;DHT22;11050;52.222;20.916;2024-01-15T03:10:13;1.20;99.90
21778;DHT22;11050;52.222;20.916;2024-01-15T03:12:39;1.20;99.90
21778;DHT22;11050;52.222;20.916;2024-01-15T03:15:05;1.20;99.90
21778;DHT22;11050;52.222;20.916;2024-01-15T03:17:31;1.20;99.90
21778;DHT22;11050;52.222;20.916;2024-01-15T03:19:57;1.20;99.90
21778;DHT22;11050;52.222;20.916;2024-01-15T03:22:23;1.10;99.90
21778;DHT22;11050;52.222;20.916;2024-01-15T03:24:49;1.10;99.90
21778;DHT22;11050;52.222;20.916;2024-01-15T03:27:14;1.00;99.90
21778;DHT22;11050;52.222;20.916;2024-01-15T03:29:41;1.00;99.90
21778;DHT22;11050;52.222;20.916;2024-01-15T03:32:07;1.00;99.90
21778;DHT22;11050;52.222;20.916;2024-01-15T03:34:32;0.90;99.90
21778;DHT22;11050;52.222;20.916;2024-01-15T03:36:58;0.90;99.90
21778;DHT22;11050;52.222;20.916;2024-01-15T03:39:24;1.00;99.90
21778;DHT22;11050;52.222;20.916;2024-01-15T03:41:51;0.90;99.90
21778;DHT22;11050;52.222;20.916;2024-01-15T03:44:16;0.90;99.90
21778;DHT22;11050;52.222;20.916;2024-01-15T03:46:42;0.90;99.90
21778;DHT22;11050;52.222;20.916;2024-01-15T03:49:08;1.00;99.90
21778;DHT22;11050;52.222;20.916;2024-01-15T03:51:34;1.00;99.90
21778;DHT22;11050;52.222;20.916;2024-01-15T03:53:59;1.00;99.90
21778;DHT22;11050;52.222;20.916;2024-01-15T03:56:25;1.00;99.90
21778;DHT22;11050;52.222;20.916;2024-01-15T03:58:51;1.00;99.90
21778;DHT22;11050;52.222;20.916;2024-01-15T04:01:17;1.00;99.90
21778;DHT22;11050;52.222;20.916;2024-01-15T04:03:42;1.00;99.90
21778;DHT22;11050;52.222;20.916;2024-01-15T04:06:08;1.00;99.90
21778;DHT22;11050;52.222;20.916;2024-01-15T04:08:34;1.00;99.90
21778;DHT22;11050;52.222;20.916;2024-01-15T04:11:00;1.00;99.90
21778;DHT22;11050;52.222;20.916;2024-01-15T04:13:27;1.00;99.90
21778;DHT22;11050;52.222;20.916;2024-01-15T04:15:52;1.00;99.90
21778;DHT22;11050;52.222;20.916;2024-01-15T04:18:18;1.00;99.90
21778;DHT22;11050;52.222;20.916;2024-01-15T04:20:44;1.00;99.90
21778;DHT22;11050;52.222;20.916;2024-01-15T04:23:10;1.00;99.90
21778;DHT22;11050;52.222;20.916;2024-01-15T04:25:36;1.00;99.90
21778;DHT22;11050;52.222;20.916;2024-01-15T04:28:01;1.00;99.90
21778;DHT22;11050;52.222;20.916;2024-01-15T04:30:28;1.00;99.90
21778;DHT22;11050;52.222;20.916;2024-01-15T04:32:53;1.00;99.90
21778;DHT22;11050;52.222;20.916;2024-01-15T04:35:19;1.00;99.90
21778;DHT22;11050;52.222;20.916;2024-01-15T04:37:45;1.00;99.90
21778;DHT22;11050;52.222;20.916;2024-01-15T04:40:11;1.00;99.90
21778;DHT22;11050;52.222;20.916;2024-01-15T04:42:37;1.10;99.90
21778;DHT22;11050;52.222;20.916;2024-01-15T04:45:03;1.10;99.90
21778;DHT22;11050;52.222;20.916;2024-01-15T04:47:29;1.10;99.90
21778;DHT22;11050;52.222;20.916;2024-01-15T04:49:54;1.10;99.90
21778;DHT22;11050;52.222;20.916;2024-01-15T04:52:20;1.10;99.90
21778;DHT22;11050;52.222;20.916;2024-01-15T04:54:46;1.10;99.90
21778;DHT22;11050;52.222;20.916;2024-01-15T04:57:12;1.10;99.90
21778;DHT22;11050;52.222;20.916;2024-01-15T04:59:37;1.10;99.90
21778;DHT22;11050;52.222;20.916;2024-01-15T05:02:03;1.10;99.90
21778;DHT22;11050;52.222;20.916;2024-01-15T05:04:29;1.20;99.90
21778;DHT22;11050;52.222;20.916;2024-01-15T05:06:55;1.20;99.90
21778;DHT22;11050;52.222;20.916;2024-01-15T05:09:21;1.20;99.90
21778;DHT22;11050;52.222;20.916;2024-01-15T05:11:47;1.20;99.90
21778;DHT22;11050;52.222;20.916;2024-01-15T05:14:12;1.20;99.90
21778;DHT22;11050;52.222;20.916;2024-01-15T05:16:39;1.20;99.90
21778;DHT22;11050;52.222;20.916;2024-01-15T05:19:07;1.20;99.90
21778;DHT22;11050;52.222;20.916;2024-01-15T05:21:33;1.20;99.90
21778;DHT22;11050;52.222;20.916;2024-01-15T05:23:58;1.20;99.90
21778;DHT22;11050;52.222;20.916;2024-01-15T05:26:24;1.20;99.90
21778;DHT22;11050;52.222;20.916;2024-01-15T05:28:50;1.20;99.90
21778;DHT22;11050;52.222;20.916;2024-01-15T05:31:15;1.20;99.90
21778;DHT22;11050;52.222;20.916;2024-01-15T05:33:41;1.20;99.90
21778;DHT22;11050;52.222;20.916;2024-01-15T05:36:07;1.20;99.90
21778;DHT22;11050;52.222;20.916;2024-01-15T05:38:33;1.20;99.90
21778;DHT22;11050;52.222;20.916;2024-01-15T05:40:58;1.20;99.90
21778;DHT22;11050;52.222;20.916;2024-01-15T05:43:24;1.30;99.90
21778;DHT22;11050;52.222;20.916;2024-01-15T05:45:50;1.20;99.90
21778;DHT22;11050;52.222;20.916;2024-01-15T05:48:15;1.20;99.90
21778;DHT22;11050;52.222;20.916;2024-01-15T05:50:41;1.20;99.90
21778;DHT22;11050;52.222;20.916;2024-01-15T05:53:07;1.20;99.90
21778;DHT22;11050;52.222;20.916;2024-01-15T05:55:34;1.20;99.90
21778;DHT22;11050;52.222;20.916;2024-01-15T05:58:01;1.20;99.90
21778;DHT22;11050;52.222;20.916;2024-01-15T06:00:27;1.20;99.90
21778;DHT22;11050;52.222;20.916;2024-01-15T06:02:53;1.20;99.90
21778;DHT22;11050;52.222;20.916;2024-01-15T06:05:18;1.20;99.90
21778;DHT22;11050;52.222;20.916;2024-01-15T06:07:44;1.20;99.90
21778;DHT22;11050;52.222;20.916;2024-01-15T06:10:10;1.10;99.90
21778;DHT22;11050;52.222;20.916;2024-01-15T06:12:35;1.10;99.90
21778;DHT22;11050;52.222;20.916;2024-01-15T06:15:01;1.10;99.90
21778;DHT22;11050;52.222;20.916;2024-01-15T06:17:27;1.10;99.90
21778;DHT22;11050;52.222;20.916;2024-01-15T06:19:53;1.10;99.90
21778;DHT22;11050;52.222;20.916;2024-01-15T06:22:19;1.10;99.90
21778;DHT22;11050;52.222;20.916;2024-01-15T06:24:44;1.10;99.90
21778;DHT22;11050;52.222;20.916;2024-01-15T06:27:10;1.10;99.90
21778;DHT22;11050;52.222;20.916;2024-01-15T06:29:37;1.10;99.90
21778;DHT22;11050;52.222;20.916;2024-01-15T06:32:04;1.10;99.90
21778;DHT22;11050;52.222;20.916;2024-01-15T06:34:30;1.10;99.90
21778;DHT22;11050;52.222;20.916;2024-01-15T06:36:56;1.10;99.90
21778;DHT22;11050;52.222;20.916;2024-01-15T06:39:22;1.10;99.90
21778;DHT22;11050;52.222;20.916;2024-01-15T06:41:47;1.00;99.90
21778;DHT22;11050;52.222;20.916;2024-01-15T06:44:13;1.00;99.90
21778;DHT22;11050;52.222;20.916;2024-01-15T06:46:45;1.00;99.90
21778;DHT22;11050;52.222;20.916;2024-01-15T06:49:12;1.00;99.90
21778;DHT22;11050;52.222;20.916;2024-01-15T06:51:38;1.00;99.90
21778;DHT22;11050;52.222;20.916;2024-01-15T06:54:05;1.10;99.90
21778;DHT22;11050;52.222;20.916;2024-01-15T06:56:31;1.10;99.90
21778;DHT22;11050;52.222;20.916;2024-01-15T06:58:57;1.10;99.90
21778;DHT22;11050;52.222;20.916;2024-01-15T07:01:23;1.10;99.90
21778;DHT22;11050;52.222;20.916;2024-01-15T07:03:49;1.20;99.90
21778;DHT22;11050;52.222;20.916;2024-01-15T07:06:15;1.20;99.90
21778;DHT22;11050;52.222;20.916;2024-01-15T07:08:42;1.20;99.90
21778;DHT22;11050;52.222;20.916;2024-01-15T07:11:08;1.20;99.90
21778;DHT22;11050;52.222;20.916;2024-01-15T07:13:35;1.20;99.90
21778;DHT22;11050;52.222;20.916;2024-01-15T07:16:01;1.20;99.90
21778;DHT22;11050;52.222;20.916;2024-01-15T07:18:27;1.10;99.90
21778;DHT22;11050;52.222;20.916;2024-01-15T07:20:53;1.10;99.90
21778;DHT22;11050;52.222;20.916;2024-01-15T07:23:19;1.10;99.90
21778;DHT22;11050;52.222;20.916;2024-01-15T07:25:45;1.10;99.90
21778;DHT22;11050;52.222;20.916;2024-01-15T07:28:11;1.10;99.90
21778;DHT22;11050;52.222;20.916;2024-01-15T07:30:36;1.10;99.90
21778;DHT22;11050;52.222;20.916;2024-01-15T07:33:04;1.00;99.90
21778;DHT22;11050;52.222;20.916;2024-01-15T07:35:30;1.00;99.90
21778;DHT22;11050;52.222;20.916;2024-01-15T07:37:57;1.00;99.90
21778;DHT22;11050;52.222;20.916;2024-01-15T07:40:23;1.00;99.90
21778;DHT22;11050;52.222;20.916;2024-01-15T07:42:50;1.00;99.90
21778;DHT22;11050;52.222;20.916;2024-01-15T07:45:16;1.00;99.90
21778;DHT22;11050;52.222;20.916;2024-01-15T07:47:43;1.00;99.90
21778;DHT22;11050;52.222;20.916;2024-01-15T07:50:09;1.00;99.90
21778;DHT22;11050;52.222;20.916;2024-01-15T07:52:35;1.00;99.90
21778;DHT22;11050;52.222;20.916;2024-01-15T07:55:01;1.00;99.90
21778;DHT22;11050;52.222;20.916;2024-01-15T07:57:29;1.10;99.90
21778;DHT22;11050;52.222;20.916;2024-01-15T07:59:54;1.10;99.90
21778;DHT22;11050;52.222;20.916;2024-01-15T08:02:20;1.10;99.90
21778;DHT22;11050;52.222;20.916;2024-01-15T08:04:47;1.10;99.90
21778;DHT22;11050;52.222;20.916;2024-01-15T08:07:13;1.10;99.90
21778;DHT22;11050;52.222;20.916;2024-01-15T08:09:39;1.10;99.90
21778;DHT22;11050;52.222;20.916;2024-01-15T08:12:05;1.00;99.90
21778;DHT22;11050;52.222;20.916;2024-01-15T08:14:31;1.00;99.90
21778;DHT22;11050;52.222;20.916;2024-01-15T08:16:57;1.00;99.90
21778;DHT22;11050;52.222;20.916;2024-01-15T08:19:23;1.00;99.90
21778;DHT22;11050;52.222;20.916;2024-01-15T08:21:49;1.00;99.90
21778;DHT22;11050;52.222;20.916;2024-01-15T08:24:15;1.10;99.90
21778;DHT22;11050;52.222;20.916;2024-01-15T08:26:42;1.20;99.90
21778;DHT22;11050;52.222;20.916;2024-01-15T08:29:08;1.20;99.90
21778;DHT22;11050;52.222;20.916;2024-01-15T08:31:34;1.30;99.90
21778;DHT22;11050;52.222;20.916;2024-01-15T08:34:00;1.30;99.90
21778;DHT22;11050;52.222;20.916;2024-01-15T08:36:27;1.40;99.90
21778;DHT22;11050;52.222;20.916;2024-01-15T08:38:55;1.40;99.90
21778;DHT22;11050;52.222;20.916;2024-01-15T08:41:20;1.40;99.90
21778;DHT22;11050;52.222;20.916;2024-01-15T08:43:46;1.50;99.90
21778;DHT22;11050;52.222;20.916;2024-01-15T08:46:12;1.50;99.90
21778;DHT22;11050;52.222;20.916;2024-01-15T08:48:38;1.50;99.90
21778;DHT22;11050;52.222;20.916;2024-01-15T08:51:05;1.40;99.90
21778;DHT22;11050;52.222;20.916;2024-01-15T08:53:31;1.40;99.90
21778;DHT22;11050;52.222;20.916;2024-01-15T08:55:58;1.30;99.90
21778;DHT22;11050;52.222;20.916;2024-01-15T08:58:24;1.30;99.90
21778;DHT22;11050;52.222;20.916;2024-01-15T09:00:50;1.30;99.90
21778;DHT22;11050;52.222;20.916;2024-01-15T09:03:16;1.40;99.90
21778;DHT22;11050;52.222;20.916;2024-01-15T09:05:42;1.40;99.90
21778;DHT22;11050;52.222;20.916;2024-01-15T09:08:08;1.40;99.90
21778;DHT22;11050;52.222;20.916;2024-01-15T09:10:34;1.40;99.90
21778;DHT22;11050;52.222;20.916;2024-01-15T09:13:00;1.50;99.90
21778;DHT22;11050;52.222;20.916;2024-01-15T09:15:26;1.60;99.90
21778;DHT22;11050;52.222;20.916;2024-01-15T09:17:51;1.60;99.90
21778;DHT22;11050;52.222;20.916;2024-01-15T09:20:17;1.70;99.90
21778;DHT22;11050;52.222;20.916;2024-01-15T09:22:43;1.80;99.90
21778;DHT22;11050;52.222;20.916;2024-01-15T09:25:10;1.80;99.90
21778;DHT22;11050;52.222;20.916;2024-01-15T09:27:36;1.80;99.90
21778;DHT22;11050;52.222;20.916;2024-01-15T09:30:03;1.90;99.90
21778;DHT22;11050;52.222;20.916;2024-01-15T09:32:30;1.90;99.90
21778;DHT22;11050;52.222;20.916;2024-01-15T09:34:56;1.90;99.90
21778;DHT22;11050;52.222;20.916;2024-01-15T09:37:21;1.90;99.90
21778;DHT22;11050;52.222;20.916;2024-01-15T09:39:49;1.90;99.90
21778;DHT22;11050;52.222;20.916;2024-01-15T09:42:15;1.90;99.90
21778;DHT22;11050;52.222;20.916;2024-01-15T09:44:41;1.90;99.90
21778;DHT22;11050;52.222;20.916;2024-01-15T09:47:08;2.00;99.90
21778;DHT22;11050;52.222;20.916;2024-01-15T09:49:34;2.00;99.90
21778;DHT22;11050;52.222;20.916;2024-01-15T09:52:01;2.00;99.90
21778;DHT22;11050;52.222;20.916;2024-01-15T09:54:27;2.10;99.90
21778;DHT22;11050;52.222;20.916;2024-01-15T09:56:54;2.10;99.90
21778;DHT22;11050;52.222;20.916;2024-01-15T09:59:22;2.10;99.90
21778;DHT22;11050;52.222;20.916;2024-01-15T10:01:50;2.10;99.90
21778;DHT22;11050;52.222;20.916;2024-01-15T10:04:17;2.10;99.90
21778;DHT22;11050;52.222;20.916;2024-01-15T10:06:45;2.10;99.90
21778;DHT22;11050;52.222;20.916;2024-01-15T10:09:14;2.10;99.90
21778;DHT22;11050;52.222;20.916;2024-01-15T10:11:42;2.20;99.90
21778;DHT22;11050;52.222;20.916;2024-01-15T10:14:12;2.10;99.90
21778;DHT22;11050;52.222;20.916;2024-01-15T10:16:39;2.20;99.90
21778;DHT22;11050;52.222;20.916;2024-01-15T10:19:05;2.20;99.90
21778;DHT22;11050;52.222;20.916;2024-01-15T10:21:34;2.20;99.90
21778;DHT22;11050;52.222;20.916;2024-01-15T10:24:01;2.20;99.90
21778;DHT22;11050;52.222;20.916;2024-01-15T10:26:29;2.20;99.90
21778;DHT22;11050;52.222;20.916;2024-01-15T10:28:55;2.20;99.90
21778;DHT22;11050;52.222;20.916;2024-01-15T10:31:21;2.20;99.90
21778;DHT22;11050;52.222;20.916;2024-01-15T10:33:50;2.10;99.90
21778;DHT22;11050;52.222;20.916;2024-01-15T10:36:16;2.10;99.90
21778;DHT22;11050;52.222;20.916;2024-01-15T10:38:46;2.00;99.90
21778;DHT22;11050;52.222;20.916;2024-01-15T10:41:12;2.00;99.90
21778;DHT22;11050;52.222;20.916;2024-01-15T10:43:39;2.10;99.90
21778;DHT22;11050;52.222;20.916;2024-01-15T10:46:06;2.10;99.90
21778;DHT22;11050;52.222;20.916;2024-01-15T10:48:33;2.10;99.90
21778;DHT22;11050;52.222;20.916;2024-01-15T10:51:01;2.20;99.90
21778;DHT22;11050;52.222;20.916;2024-01-15T10:53:37;2.20;99.90
21778;DHT22;11050;52.222;20.916;2024-01-15T10:56:06;2.30;99.90
21778;DHT22;11050;52.222;20.916;2024-01-15T10:58:33;2.30;99.90
21778;DHT22;11050;52.222;20.916;2024-01-15T11:01:01;2.30;99.90
21778;DHT22;11050;52.222;20.916;2024-01-15T11:03:28;2.30;99.90
21778;DHT22;11050;52.222;20.916;2024-01-15T11:05:54;2.30;99.90
21778;DHT22;11050;52.222;20.916;2024-01-15T11:08:20;2.30;99.90
21778;DHT22;11050;52.222;20.916;2024-01-15T11:10:48;2.30;99.90
21778;DHT22;11050;52.222;20.916;2024-01-15T11:16:03;2.30;99.90
21778;DHT22;11050;52.222;20.916;2024-01-15T11:18:41;2.30;99.90
21778;DHT22;11050;52.222;20.916;2024-01-15T11:23:43;2.30;99.90
21778;DHT22;11050;52.222;20.916;2024-01-15T11:29:09;2.30;99.90
21778;DHT22;11050;52.222;20.916;2024-01-15T11:32:09;2.40;99.90
21778;DHT22;11050;52.222;20.916;2024-01-15T11:35:01;2.30;99.90
21778;DHT22;11050;52.222;20.916;2024-01-15T11:42:46;2.40;99.90
21778;DHT22;11050;52.222;20.916;2024-01-15T11:45:15;2.30;99.90
21778;DHT22;11050;52.222;20.916;2024-01-15T11:50:49;2.30;99.90
21778;DHT22;11050;52.222;20.916;2024-01-15T11:53:36;2.20;99.90
21778;DHT22;11050;52.222;20.916;2024-01-15T11:56:14;2.20;99.90
21778;DHT22;11050;52.222;20.916;2024-01-15T11:58:42;2.20;99.90
21778;DHT22;11050;52.222;20.916;2024-01-15T12:01:10;2.20;99.90
21778;DHT22;11050;52.222;20.916;2024-01-15T12:03:36;2.20;99.90
21778;DHT22;11050;52.222;20.916;2024-01-15T12:06:05;2.20;99.90
21778;DHT22;11050;52.222;20.916;2024-01-15T12:08:32;2.20;99.90
21778;DHT22;11050;52.222;20.916;2024-01-15T12:10:58;2.20;99.90
21778;DHT22;11050;52.222;20.916;2024-01-15T12:13:24;2.20;99.90
21778;DHT22;11050;52.222;20.916;2024-01-15T12:15:49;2.20;99.90
21778;DHT22;11050;52.222;20.916;2024-01-15T12:18:17;2.10;99.90
21778;DHT22;11050;52.222;20.916;2024-01-15T12:20:44;2.10;99.90
21778;DHT22;11050;52.222;20.916;2024-01-15T12:23:12;2.00;99.90
21778;DHT22;11050;52.222;20.916;2024-01-15T12:25:42;2.00;99.90
21778;DHT22;11050;52.222;20.916;2024-01-15T12:28:08;2.00;99.90
21778;DHT22;11050;52.222;20.916;2024-01-15T12:30:35;2.00;99.90
21778;DHT22;11050;52.222;20.916;2024-01-15T12:33:06;1.90;99.90
21778;DHT22;11050;52.222;20.916;2024-01-15T12:35:35;1.80;99.90
21778;DHT22;11050;52.222;20.916;2024-01-15T12:38:02;1.70;99.90
21778;DHT22;11050;52.222;20.916;2024-01-15T12:40:29;1.60;99.90
21778;DHT22;11050;52.222;20.916;2024-01-15T12:42:55;1.50;99.90
21778;DHT22;11050;52.222;20.916;2024-01-15T12:45:21;1.40;99.90
21778;DHT22;11050;52.222;20.916;2024-01-15T12:47:46;1.40;99.90
21778;DHT22;11050;52.222;20.916;2024-01-15T12:50:13;1.40;99.90
21778;DHT22;11050;52.222;20.916;2024-01-15T12:52:41;1.40;99.90
21778;DHT22;11050;52.222;20.916;2024-01-15T12:55:08;1.60;99.90
21778;DHT22;11050;52.222;20.916;2024-01-15T12:57:35;1.70;99.90
21778;DHT22;11050;52.222;20.916;2024-01-15T13:00:02;1.80;99.90
21778;DHT22;11050;52.222;20.916;2024-01-15T13:02:33;1.80;99.90
21778;DHT22;11050;52.222;20.916;2024-01-15T13:04:59;1.80;99.90
21778;DHT22;11050;52.222;20.916;2024-01-15T13:07:25;1.80;99.90
21778;DHT22;11050;52.222;20.916;2024-01-15T13:09:51;1.70;99.90
21778;DHT22;11050;52.222;20.916;2024-01-15T13:12:19;1.50;99.90
21778;DHT22;11050;52.222;20.916;2024-01-15T13:14:46;1.40;99.90
21778;DHT22;11050;52.222;20.916;2024-01-15T13:17:13;1.20;99.90
21778;DHT22;11050;52.222;20.916;2024-01-15T13:19:40;1.10;99.90
21778;DHT22;11050;52.222;20.916;2024-01-15T13:22:06;1.10;99.90
21778;DHT22;11050;52.222;20.916;2024-01-15T13:24:35;1.00;99.90
21778;DHT22;11050;52.222;20.916;2024-01-15T13:27:02;1.00;99.90
21778;DHT22;11050;52.222;20.916;2024-01-15T13:29:30;0.90;99.90
21778;DHT22;11050;52.222;20.916;2024-01-15T13:31:56;0.90;99.90
21778;DHT22;11050;52.222;20.916;2024-01-15T13:34:22;0.90;99.90
21778;DHT22;11050;52.222;20.916;2024-01-15T13:36:48;0.90;99.90
21778;DHT22;11050;52.222;20.916;2024-01-15T13:39:15;0.90;99.90
21778;DHT22;11050;52.222;20.916;2024-01-15T13:41:48;0.90;99.90
21778;DHT22;11050;52.222;20.916;2024-01-15T13:44:14;1.00;99.90
21778;DHT22;11050;52.222;20.916;2024-01-15T13:46:40;1.10;99.90
21778;DHT22;11050;52.222;20.916;2024-01-15T13:49:05;1.00;99.90
21778;DHT22;11050;52.222;20.916;2024-01-15T13:51:31;1.10;99.90
21778;DHT22;11050;52.222;20.916;2024-01-15T13:53:57;1.10;99.90
21778;DHT22;11050;52.222;20.916;2024-01-15T13:56:23;1.10;99.90
21778;DHT22;11050;52.222;20.916;2024-01-15T13:58:49;1.20;99.90
21778;DHT22;11050;52.222;20.916;2024-01-15T14:01:15;1.20;99.90
21778;DHT22;11050;52.222;20.916;2024-01-15T14:03:43;1.20;99.90
21778;DHT22;11050;52.222;20.916;2024-01-15T14:06:09;1.20;99.90
21778;DHT22;11050;52.222;20.916;2024-01-15T14:08:36;1.20;99.90
21778;DHT22;11050;52.222;20.916;2024-01-15T14:11:03;1.20;99.90
21778;DHT22;11050;52.222;20.916;2024-01-15T14:13:31;1.20;99.90
21778;DHT22;11050;52.222;20.916;2024-01-15T14:15:57;1.20;99.90
21778;DHT22;11050;52.222;20.916;2024-01-15T14:18:23;1.20;99.90
21778;DHT22;11050;52.222;20.916;2024-01-15T14:20:49;1.20;99.90
21778;DHT22;11050;52.222;20.916;2024-01-15T14:23:14;1.20;99.90
21778;DHT22;11050;52.222;20.916;2024-01-15T14:25:40;1.20;99.90
21778;DHT22;11050;52.222;20.916;2024-01-15T14:28:06;1.20;99.90
21778;DHT22;11050;52.222;20.916;2024-01-15T14:30:32;1.10;99.90
21778;DHT22;11050;52.222;20.916;2024-01-15T14:32:58;1.10;99.90
21778;DHT22;11050;52.222;20.916;2024-01-15T14:35:24;1.10;99.90
21778;DHT22;11050;52.222;20.916;2024-01-15T14:37:49;1.10;99.90
21778;DHT22;11050;52.222;20.916;2024-01-15T14:40:15;1.10;99.90
21778;DHT22;11050;52.222;20.916;2024-01-15T14:42:41;1.10;99.90
21778;DHT22;11050;52.222;20.916;2024-01-15T14:45:07;1.00;99.90
21778;DHT22;11050;52.222;20.916;2024-01-15T14:47:40;1.00;99.90
21778;DHT22;11050;52.222;20.916;2024-01-15T14:50:07;1.00;99.90
21778;DHT22;11050;52.222;20.916;2024-01-15T14:52:35;1.00;99.90
21778;DHT22;11050;52.222;20.916;2024-01-15T14:55:02;1.00;99.90
21778;DHT22;11050;52.222;20.916;2024-01-15T14:57:28;1.00;99.90
21778;DHT22;11050;52.222;20.916;2024-01-15T14:59:54;1.00;99.90
21778;DHT22;11050;52.222;20.916;2024-01-15T15:02:20;1.00;99.90
21778;DHT22;11050;52.222;20.916;2024-01-15T15:04:46;1.00;99.90
21778;DHT22;11050;52.222;20.916;2024-01-15T15:07:12;1.00;99.90
21778;DHT22;11050;52.222;20.916;2024-01-15T15:09:38;1.00;99.90
21778;DHT22;11050;52.222;20.916;2024-01-15T15:12:05;1.00;99.90
21778;DHT22;11050;52.222;20.916;2024-01-15T15:14:31;1.00;99.90
21778;DHT22;11050;52.222;20.916;2024-01-15T15:17:05;1.00;99.90
21778;DHT22;11050;52.222;20.916;2024-01-15T15:19:31;1.00;99.90
21778;DHT22;11050;52.222;20.916;2024-01-15T15:21:58;1.00;99.90
21778;DHT22;11050;52.222;20.916;2024-01-15T15:24:25;1.00;99.90
21778;DHT22;11050;52.222;20.916;2024-01-15T15:26:51;1.10;99.90
21778;DHT22;11050;52.222;20.916;2024-01-15T15:29:17;1.10;99.90
21778;DHT22;11050;52.222;20.916;2024-01-15T15:31:43;1.10;99.90
21778;DHT22;11050;52.222;20.916;2024-01-15T15:34:10;1.10;99.90
21778;DHT22;11050;52.222;20.916;2024-01-15T15:36:35;1.10;99.90
21778;DHT22;11050;52.222;20.916;2024-01-15T15:39:02;1.10;99.90
21778;DHT22;11050;52.222;20.916;2024-01-15T15:41:27;1.10;99.90
21778;DHT22;11050;52.222;20.916;2024-01-15T15:43:54;1.10;99.90